createdAt,value
2017-06-10T00:01:14.065Z,0
2017-06-10T00:11:29.305Z,0
2017-06-10T00:21:44.043Z,0
2017-06-10T00:31:59.352Z,0
2017-06-10T00:42:13.380Z,0
2017-06-10T00:52:27.701Z,0
2017-06-10T01:02:42.053Z,0
2017-06-10T01:12:55.873Z,0
2017-06-10T01:23:10.662Z,0
2017-06-10T01:33:26.081Z,0
2017-06-10T01:43:41.542Z,0
2017-06-10T01:53:55.510Z,0
2017-06-10T02:04:10.426Z,0
2017-06-10T02:14:25.631Z,0
2017-06-10T02:24:39.671Z,4
2017-06-10T02:34:54.857Z,8
2017-06-10T02:45:10.169Z,28
2017-06-10T02:55:24.315Z,96
2017-06-10T03:05:39.793Z,252
2017-06-10T03:15:55.103Z,532
2017-06-10T03:26:09.772Z,928
2017-06-10T03:36:25.036Z,1400
2017-06-10T03:46:39.103Z,1868
2017-06-10T03:56:53.239Z,2324
2017-06-10T04:07:07.958Z,2748
2017-06-10T04:17:22.243Z,3116
2017-06-10T04:27:36.293Z,3448
2017-06-10T04:37:50.739Z,3732
2017-06-10T04:48:04.704Z,5728
2017-06-10T04:58:19.448Z,4296
2017-06-10T05:08:34.667Z,4788
2017-06-10T05:18:50.018Z,4900
2017-06-10T05:29:04.462Z,5204
2017-06-10T05:39:18.417Z,5604
2017-06-10T05:49:33.199Z,6028
2017-06-10T05:59:47.998Z,23456
2017-06-10T06:10:03.375Z,28800
2017-06-10T06:20:18.721Z,32416
2017-06-10T06:30:33.247Z,36672
2017-06-10T06:40:48.655Z,43680
2017-06-10T06:51:03.549Z,29568
2017-06-10T07:01:18.332Z,41344
2017-06-10T07:11:34.139Z,57184
2017-06-10T07:21:49.256Z,57728
2017-06-10T07:32:03.835Z,61792
2017-06-10T07:42:19.046Z,65952
2017-06-10T07:52:34.051Z,61504
2017-06-10T08:02:49.403Z,64544
2017-06-10T08:13:04.686Z,71968
2017-06-10T08:23:19.170Z,70848
2017-06-10T08:33:34.155Z,77184
2017-06-10T08:43:49.975Z,79584
2017-06-10T08:54:04.015Z,83104
2017-06-10T09:04:19.023Z,90176
2017-06-10T09:14:33.493Z,91424
2017-06-10T09:24:48.871Z,40128
2017-06-10T09:35:03.710Z,94368
2017-06-10T09:45:18.614Z,63872
2017-06-10T09:55:33.447Z,74656
2017-06-10T10:05:48.258Z,66144
2017-06-10T10:16:02.320Z,89984
2017-06-10T10:26:18.214Z,55104
2017-06-10T10:36:32.257Z,136032
2017-06-10T10:46:47.968Z,76512
2017-06-10T10:57:03.827Z,61216
2017-06-10T11:07:18.503Z,61472
2017-06-10T11:17:33.579Z,68032
2017-06-10T11:27:48.788Z,118016
2017-06-10T11:38:03.087Z,77120
2017-06-10T11:48:18.348Z,100000
2017-06-10T11:58:33.306Z,78752
2017-06-10T12:08:47.737Z,70336
2017-06-10T12:19:02.435Z,87776
2017-06-10T12:29:18.096Z,85920
2017-06-10T12:39:32.210Z,63072
2017-06-10T12:49:47.133Z,90368
2017-06-10T13:00:03.002Z,64544
2017-06-10T13:10:17.789Z,89088
2017-06-10T13:20:33.250Z,51200
2017-06-10T13:30:48.007Z,49728
2017-06-10T13:41:03.185Z,67520
2017-06-10T13:51:18.434Z,36704
2017-06-10T14:01:34.021Z,49856
2017-06-10T14:11:48.579Z,45696
2017-06-10T14:22:03.226Z,35776
2017-06-10T14:32:17.453Z,30048
2017-06-10T14:42:31.659Z,30816
2017-06-10T14:52:46.418Z,48384
2017-06-10T15:03:01.335Z,63616
2017-06-10T15:13:15.899Z,43712
2017-06-10T15:23:31.299Z,37472
2017-06-10T15:33:46.746Z,44000
2017-06-10T15:44:01.615Z,39584
2017-06-10T15:54:16.484Z,38528
2017-06-10T16:04:30.428Z,32320
2017-06-10T16:14:44.840Z,33184
2017-06-10T16:25:00.553Z,37184
2017-06-10T16:35:14.687Z,38080
2017-06-10T16:45:30.357Z,34816
2017-06-10T16:55:45.077Z,27808
2017-06-10T17:06:00.810Z,50688
2017-06-10T17:16:16.314Z,38240
2017-06-10T17:26:30.859Z,16576
2017-06-10T17:36:44.780Z,20288
2017-06-10T17:46:59.345Z,15548
2017-06-10T17:57:13.243Z,12544
2017-06-10T18:07:28.120Z,10848
2017-06-10T18:17:43.520Z,8904
2017-06-10T18:27:57.666Z,5740
2017-06-10T18:38:12.191Z,4176
2017-06-10T18:48:26.645Z,3244
2017-06-10T18:58:42.242Z,2884
2017-06-10T19:08:56.761Z,2748
2017-06-10T19:19:12.306Z,1832
2017-06-10T19:29:27.607Z,1280
2017-06-10T19:39:42.118Z,796
2017-06-10T19:49:57.647Z,412
2017-06-10T20:00:13.186Z,184
2017-06-10T20:10:27.162Z,60
2017-06-10T20:20:42.429Z,20
2017-06-10T20:30:57.536Z,4
2017-06-10T20:41:12.888Z,0
2017-06-10T20:51:27.997Z,0
2017-06-10T21:01:41.912Z,0
2017-06-10T21:11:56.228Z,0
2017-06-10T21:22:11.045Z,0
2017-06-10T21:32:26.509Z,0
2017-06-10T21:42:40.679Z,0
2017-06-10T21:52:55.839Z,0
2017-06-10T22:03:10.706Z,0
2017-06-10T22:13:26.120Z,0
2017-06-10T22:23:40.207Z,0
2017-06-10T22:33:55.269Z,0
2017-06-10T22:44:09.449Z,0
2017-06-10T22:54:24.792Z,0
2017-06-10T23:04:39.256Z,0
2017-06-10T23:14:54.997Z,0
2017-06-10T23:25:10.005Z,0
2017-06-10T23:35:24.266Z,0
2017-06-10T23:45:39.847Z,0
2017-06-10T23:55:55.312Z,0
